Terminal Aerodrome Forecast
Issued by NWS Chicago, IL

Home | Current Version | Previous Version | Graphics & Text | Print | Product List | Glossary On
Versions: 1 2 3 4 5 6 7 8 9 10 11 12 13 14 15 16 17 18 19 20 21 22 23 24 25 26 27 28 29 30 31 32 33 34 35 36 37 38 39
000
FTUS43 KLOT 262300
TAFRFD
TAF
KRFD 262339Z 2700/2724 16007KT 2SM -FZDZ BR OVC005
      TEMPO 2700/2704 1SM BR
     FM270400 15005KT 2SM BR OVC005
      TEMPO 2704/2708 1SM -FZDZ BR
     FM270800 04004KT 5SM BR OVC006
     FM271600 05006KT P6SM OVC015
     FM272000 08005KT P6SM SCT030 BKN250=

USA.gov is the U.S. government's official web portal to all federal, state and local government web resources and services.